Time;durP1;ratioP1;P1;durP2;ratioP2;P2;SDS_P1;SDS_P2;PMS_P1;PMS_P2;Temp;Humidity;BMP_temperature;BMP_pressure;BME280_temperature;BME280_humidity;BME280_pressure;Samples;Min_cycle;Max_cycle;Signal;HPM_P1;HPM_P2
2022/08/24 00:01:20;;;;;;;14.03;3.22;;;;;;;19.47;50.29;100973.06;1667184;85;20921;-43
2022/08/24 00:03:47;;;;;;;5.87;3.47;;;;;;;19.43;50.44;100975.41;1765661;81;21050;-43
2022/08/24 00:06:19;;;;;;;13.13;3.77;;;;;;;19.42;50.09;100975.89;1743625;81;21510;-42
2022/08/24 00:08:48;;;;;;;8.53;3.72;;;;;;;19.39;50.46;100976.88;1712094;81;20981;-42
2022/08/24 00:11:15;;;;;;;11.73;3.30;;;;;;;19.36;50.18;100979.65;1730482;81;20858;-42
2022/08/24 00:13:43;;;;;;;6.62;3.10;;;;;;;19.32;50.84;100978.55;1719011;83;20989;-43
2022/08/24 00:16:10;;;;;;;17.05;4.00;;;;;;;19.26;50.65;100979.70;1766878;81;21835;-42
2022/08/24 00:18:38;;;;;;;14.78;3.20;;;;;;;19.20;50.99;100979.52;1734183;81;20940;-42
2022/08/24 00:21:06;;;;;;;14.65;4.00;;;;;;;19.14;51.10;100973.70;1733891;81;20878;-42
2022/08/24 00:23:34;;;;;;;10.40;3.37;;;;;;;19.07;51.58;100980.99;1720302;81;21573;-43
2022/08/24 00:26:03;;;;;;;11.65;3.30;;;;;;;19.02;51.45;100981.23;1714949;81;20955;-43
2022/08/24 00:28:30;;;;;;;9.20;3.33;;;;;;;19.06;50.93;100977.98;1744581;81;21346;-42
2022/08/24 00:30:57;;;;;;;9.95;3.47;;;;;;;19.13;50.72;100982.49;1747863;81;21003;-43
2022/08/24 00:33:24;;;;;;;12.43;3.20;;;;;;;19.17;50.23;100982.73;1743594;81;21008;-42
2022/08/24 00:35:51;;;;;;;7.60;3.67;;;;;;;19.22;50.82;100978.16;1752362;81;20932;-43
2022/08/24 00:38:19;;;;;;;8.73;3.27;;;;;;;19.21;50.64;100976.45;1733732;81;20977;-43
2022/08/24 00:40:47;;;;;;;4.17;3.12;;;;;;;19.20;50.94;100979.52;1737447;82;21211;-42
2022/08/24 00:43:21;;;;;;;6.62;3.17;;;;;;;19.18;50.46;100970.88;1715696;81;20999;-43
2022/08/24 00:46:17;;;;;;;12.30;3.45;;;;;;;19.19;50.64;100974.33;1742165;81;21023;-43
2022/08/24 00:48:48;;;;;;;11.78;3.80;;;;;;;19.16;50.28;100974.03;1740906;81;20976;-42
2022/08/24 00:51:23;;;;;;;11.60;3.33;;;;;;;19.21;50.41;100977.28;1751006;81;21411;-42
2022/08/24 00:53:58;;;;;;;12.70;3.55;;;;;;;19.24;49.56;100980.23;1754338;81;22619;-42
2022/08/24 00:56:30;;;;;;;10.98;4.03;;;;;;;19.35;49.40;100988.92;1757720;81;21016;-42
2022/08/24 00:59:06;;;;;;;6.15;3.35;;;;;;;19.39;49.26;100982.60;1748414;81;21502;-42
2022/08/24 01:01:33;;;;;;;11.53;4.17;;;;;;;19.41;49.25;100988.63;1696758;82;20951;-42
2022/08/24 01:04:02;;;;;;;10.53;4.20;;;;;;;19.37;49.29;100991.02;1744989;81;20980;-42
2022/08/24 01:06:32;;;;;;;12.90;4.05;;;;;;;19.30;50.20;100990.89;1757042;81;21335;-42
2022/08/24 01:08:59;;;;;;;17.05;4.03;;;;;;;19.23;49.99;100992.50;1706806;83;21015;-42
2022/08/24 01:11:28;;;;;;;10.70;4.20;;;;;;;19.18;50.00;100991.86;1709079;83;20984;-42
2022/08/24 01:13:55;;;;;;;14.13;3.70;;;;;;;19.15;50.16;100997.70;1767836;81;21589;-42
2022/08/24 01:19:37;;;;;;;10.00;3.77;;;;;;;19.01;50.84;101002.27;1760247;81;22072;-42
2022/08/24 01:22:28;;;;;;;10.75;4.90;;;;;;;18.93;50.94;101010.00;1733074;82;20947;-42
2022/08/24 01:24:56;;;;;;;8.95;3.67;;;;;;;18.84;51.27;101010.87;1682901;84;21042;-42
2022/08/24 01:27:23;;;;;;;18.07;4.30;;;;;;;18.73;51.53;101017.45;1722140;82;20972;-42
2022/08/24 01:29:50;;;;;;;9.95;4.20;;;;;;;18.65;52.17;101015.16;1728472;82;21531;-42
2022/08/24 01:32:21;;;;;;;10.60;4.47;;;;;;;18.57;52.58;101019.89;1729566;82;21267;-42
2022/08/24 01:34:48;;;;;;;15.53;4.72;;;;;;;18.52;52.58;101022.70;1724929;82;21426;-42
2022/08/24 01:37:16;;;;;;;9.48;4.55;;;;;;;18.50;53.13;101019.73;1725937;82;20937;-42
2022/08/24 01:39:47;;;;;;;15.30;4.78;;;;;;;18.46;53.50;101024.72;1735915;82;21478;-42
2022/08/24 01:42:15;;;;;;;22.67;4.50;;;;;;;18.38;53.28;101023.73;1735745;82;20929;-42
2022/08/24 01:44:43;;;;;;;19.17;4.30;;;;;;;18.31;53.79;101027.53;1736605;82;21180;-42
2022/08/24 01:47:11;;;;;;;15.00;4.47;;;;;;;18.26;53.60;101023.79;1734279;82;20925;-42
2022/08/24 01:49:44;;;;;;;20.15;5.10;;;;;;;18.29;53.25;101023.66;1728417;81;20991;-42
2022/08/24 01:52:19;;;;;;;15.50;5.25;;;;;;;18.32;53.05;101029.23;1730089;82;21031;-42
2022/08/24 01:54:46;;;;;;;17.12;5.37;;;;;;;18.31;53.00;101030.99;1720222;82;21573;-42
2022/08/24 01:57:13;;;;;;;11.45;4.92;;;;;;;18.34;53.17;101030.89;1735370;82;21137;-42
2022/08/24 01:59:41;;;;;;;16.70;4.90;;;;;;;18.32;53.46;101031.41;1734078;82;21222;-42
2022/08/24 02:02:24;;;;;;;12.13;4.22;;;;;;;18.30;53.21;101034.53;1704797;82;20956;-42
2022/08/24 02:04:51;;;;;;;14.00;4.72;;;;;;;18.31;53.02;101037.55;1728407;82;21019;-43
2022/08/24 02:07:18;;;;;;;10.43;4.95;;;;;;;18.37;52.69;101037.31;1731784;82;21603;-42
2022/08/24 02:09:46;;;;;;;9.83;4.60;;;;;;;18.40;52.56;101036.78;1735085;82;21260;-42
2022/08/24 02:12:14;;;;;;;13.93;5.00;;;;;;;18.40;53.09;101042.86;1730666;82;22374;-42
2022/08/24 02:14:42;;;;;;;9.93;4.70;;;;;;;18.35;53.28;101043.08;1735656;81;20944;-42
2022/08/24 02:17:10;;;;;;;17.77;4.75;;;;;;;18.32;53.63;101048.89;1735802;82;21031;-42
2022/08/24 02:19:37;;;;;;;8.05;4.60;;;;;;;18.24;53.92;101048.77;1718242;82;20941;-42
2022/08/24 02:22:06;;;;;;;6.20;4.12;;;;;;;18.17;54.01;101046.45;1708301;82;21146;-42
2022/08/24 02:24:34;;;;;;;11.75;5.15;;;;;;;18.11;54.71;101050.64;1695891;82;21074;-42
2022/08/24 02:27:01;;;;;;;8.53;4.80;;;;;;;18.02;55.28;101049.23;1735159;81;20942;-42
2022/08/24 02:29:28;;;;;;;21.05;5.30;;;;;;;17.94;55.46;101052.12;1735345;81;20970;-42
2022/08/24 02:31:56;;;;;;;12.10;4.35;;;;;;;17.84;55.79;101051.64;1744048;81;20926;-42
2022/08/24 02:34:23;;;;;;;15.20;5.08;;;;;;;17.73;56.54;101049.44;1740213;81;22155;-41
2022/08/24 02:36:52;;;;;;;7.12;4.37;;;;;;;17.61;57.35;101053.38;1737139;81;21014;-42
2022/08/24 02:39:19;;;;;;;7.25;4.40;;;;;;;17.50;57.20;101050.34;1700602;82;20978;-41
2022/08/24 02:41:48;;;;;;;8.98;4.35;;;;;;;17.44;57.44;101054.03;1719118;83;20893;-41
2022/08/24 02:44:15;;;;;;;16.48;4.58;;;;;;;17.41;56.63;101051.53;1747246;81;20870;-41
2022/08/24 02:46:42;;;;;;;20.50;4.92;;;;;;;17.45;56.94;101051.81;1747475;81;21262;-41
2022/08/24 02:49:10;;;;;;;14.65;4.28;;;;;;;17.48;56.58;101050.86;1752990;81;21104;-41
2022/08/24 02:51:40;;;;;;;13.03;4.33;;;;;;;17.52;56.80;101054.59;1745709;81;20917;-41
2022/08/24 02:54:08;;;;;;;10.13;4.72;;;;;;;17.50;57.68;101060.34;1731217;81;20941;-41
2022/08/24 02:56:36;;;;;;;20.80;5.03;;;;;;;17.43;57.87;101060.63;1721302;82;20985;-42
2022/08/24 02:59:03;;;;;;;10.95;4.87;;;;;;;17.39;58.23;101066.45;1743325;81;21419;-41
2022/08/24 03:01:31;;;;;;;9.50;4.75;;;;;;;17.32;58.61;101072.83;1709562;82;20966;-41
2022/08/24 03:03:58;;;;;;;14.40;4.90;;;;;;;17.26;59.67;101079.56;1742321;81;21558;-42
2022/08/24 03:06:25;;;;;;;13.38;4.97;;;;;;;17.17;59.88;101084.23;1756178;80;20862;-41
2022/08/24 03:08:53;;;;;;;9.00;4.67;;;;;;;17.09;59.99;101081.89;1745475;80;20980;-41
2022/08/24 03:11:20;;;;;;;20.40;5.55;;;;;;;17.08;60.38;101084.11;1745575;81;21252;-41
2022/08/24 03:13:48;;;;;;;17.42;4.50;;;;;;;17.07;61.03;101099.88;1741833;81;20998;-41
2022/08/24 03:16:15;;;;;;;9.13;5.05;;;;;;;17.02;61.87;101087.39;1719663;81;21415;-42
2022/08/24 03:18:43;;;;;;;9.95;4.37;;;;;;;16.98;62.45;101094.91;1702103;83;20945;-42
2022/08/24 03:21:11;;;;;;;14.05;4.75;;;;;;;16.96;62.25;101100.22;1741666;81;20988;-42
2022/08/24 03:23:40;;;;;;;12.05;4.97;;;;;;;16.96;62.11;101102.83;1752886;81;22179;-42
2022/08/24 03:26:07;;;;;;;10.53;5.12;;;;;;;16.96;62.30;101106.75;1747717;80;20960;-42
2022/08/24 03:28:34;;;;;;;18.05;5.53;;;;;;;16.97;61.79;101107.16;1754888;81;20877;-42
2022/08/24 03:31:01;;;;;;;10.10;4.87;;;;;;;17.03;61.80;101104.78;1755840;81;21634;-42
2022/08/24 03:33:29;;;;;;;22.35;4.78;;;;;;;17.08;61.69;101106.34;1751657;81;20983;-42
2022/08/24 03:35:56;;;;;;;16.32;5.10;;;;;;;17.17;61.35;101110.39;1756016;81;21246;-42
2022/08/24 03:38:23;;;;;;;18.57;5.50;;;;;;;17.24;61.73;101113.17;1765035;81;20968;-42
2022/08/24 03:40:50;;;;;;;12.25;5.35;;;;;;;17.32;61.07;101121.23;1726196;83;20996;-42
2022/08/24 03:46:06;;;;;;;16.20;5.50;;;;;;;17.41;62.07;101122.19;1696901;82;20925;-42
2022/08/24 03:48:33;;;;;;;11.75;5.20;;;;;;;17.47;61.64;101125.05;1700669;84;21063;-42
2022/08/24 03:51:01;;;;;;;21.07;5.90;;;;;;;17.52;61.75;101124.41;1709110;82;20969;-42
2022/08/24 03:53:29;;;;;;;15.20;5.10;;;;;;;17.58;62.64;101125.95;1691538;83;21021;-42
2022/08/24 03:55:56;;;;;;;17.98;5.33;;;;;;;17.64;62.50;101129.17;1687083;82;20942;-42
2022/08/24 03:58:23;;;;;;;28.62;5.70;;;;;;;17.72;62.83;101135.91;1739302;80;20925;-42
2022/08/24 04:00:50;;;;;;;23.70;4.83;;;;;;;17.79;62.83;101136.06;1748839;80;22595;-42
2022/08/24 04:03:17;;;;;;;14.10;4.67;;;;;;;17.89;63.06;101133.95;1749726;80;20878;-43
2022/08/24 04:05:45;;;;;;;17.82;5.53;;;;;;;18.01;63.07;101137.86;1753739;80;20893;-42
2022/08/24 04:08:12;;;;;;;17.92;5.62;;;;;;;18.15;62.32;101150.45;1739271;80;20942;-42
2022/08/24 04:10:43;;;;;;;13.18;5.03;;;;;;;18.31;62.93;101144.98;1756851;81;21581;-42
2022/08/24 04:13:10;;;;;;;15.72;5.35;;;;;;;18.53;62.97;101141.48;1745324;80;21183;-42
2022/08/24 04:15:41;;;;;;;18.15;5.33;;;;;;;18.79;62.77;101140.86;1742790;80;20969;-42
2022/08/24 04:18:08;;;;;;;25.97;5.40;;;;;;;19.04;62.22;101142.47;1750578;81;20964;-42
2022/08/24 04:20:41;;;;;;;19.52;4.90;;;;;;;19.34;60.46;101138.13;1750935;81;20981;-43
2022/08/24 04:23:10;;;;;;;21.87;5.12;;;;;;;19.63;59.19;101139.90;1738034;81;20948;-42
2022/08/24 04:25:43;;;;;;;19.07;5.83;;;;;;;19.94;58.53;101139.81;1739278;80;22180;-43
2022/08/24 04:28:11;;;;;;;25.40;5.10;;;;;;;20.20;57.71;101143.80;1713685;83;21483;-42
2022/08/24 04:30:42;;;;;;;19.98;5.15;;;;;;;20.44;57.37;101141.39;1741329;81;21045;-42
2022/08/24 04:33:12;;;;;;;20.62;5.78;;;;;;;20.64;56.36;101141.70;1751554;80;21000;-42
2022/08/24 04:35:41;;;;;;;34.20;5.17;;;;;;;20.84;54.66;101146.46;1755860;80;21109;-43
2022/08/24 04:38:08;;;;;;;29.07;5.58;;;;;;;21.02;53.58;101144.22;1738066;80;21231;-42
2022/08/24 04:40:39;;;;;;;23.02;6.17;;;;;;;21.24;52.16;101151.83;1751050;81;20984;-43
2022/08/24 04:43:05;;;;;;;25.40;6.00;;;;;;;21.47;52.10;101148.89;1751807;81;21273;-43
2022/08/24 04:45:39;;;;;;;21.42;5.30;;;;;;;21.70;51.64;101152.97;1746488;81;21015;-42
2022/08/24 04:48:06;;;;;;;30.37;5.20;;;;;;;21.89;50.82;101146.70;1754496;80;20937;-43
2022/08/24 04:50:36;;;;;;;36.30;5.70;;;;;;;22.04;50.69;101151.58;1749564;80;21251;-42
2022/08/24 04:53:04;;;;;;;24.70;5.40;;;;;;;22.17;48.90;101144.66;1745859;80;21454;-42
2022/08/24 04:55:32;;;;;;;36.28;5.92;;;;;;;22.28;48.45;101138.78;1740407;80;21083;-42
2022/08/24 04:57:59;;;;;;;28.57;5.37;;;;;;;22.38;48.35;101138.66;1742757;81;20950;-42
2022/08/24 05:00:26;;;;;;;25.20;5.47;;;;;;;22.48;48.07;101137.69;1738633;80;20942;-42
2022/08/24 05:02:53;;;;;;;29.27;4.97;;;;;;;22.62;48.31;101140.84;1748800;80;22085;-42
2022/08/24 05:05:20;;;;;;;28.05;5.20;;;;;;;22.84;48.40;101134.75;1740433;81;20954;-42
2022/08/24 05:07:47;;;;;;;26.00;5.08;;;;;;;23.00;48.30;101137.31;1751153;81;21553;-42
2022/08/24 05:10:14;;;;;;;28.62;4.97;;;;;;;23.16;47.53;101136.77;1759909;80;21029;-43
2022/08/24 05:12:43;;;;;;;33.92;5.75;;;;;;;23.31;47.47;101134.14;1750618;80;21085;-42
2022/08/24 05:15:11;;;;;;;33.95;5.20;;;;;;;23.41;47.05;101137.06;1737342;80;21120;-43
2022/08/24 05:17:41;;;;;;;37.60;5.87;;;;;;;23.51;45.96;101135.56;1740186;81;21585;-42
2022/08/24 05:20:11;;;;;;;28.38;5.33;;;;;;;23.60;45.82;101136.75;1742674;81;20897;-42
2022/08/24 05:22:38;;;;;;;26.82;5.22;;;;;;;23.69;44.66;101137.52;1748327;80;20982;-42
2022/08/24 05:25:07;;;;;;;19.60;5.87;;;;;;;23.75;44.93;101129.68;1698787;84;20991;-42
2022/08/24 05:27:36;;;;;;;25.30;5.50;;;;;;;23.78;45.42;101139.56;1748325;80;22129;-42
2022/08/24 05:30:04;;;;;;;35.52;5.60;;;;;;;23.78;45.76;101130.31;1722531;81;20972;-43
2022/08/24 05:32:32;;;;;;;30.65;6.97;;;;;;;23.76;44.84;101134.85;1734452;81;21047;-42
2022/08/24 05:35:00;;;;;;;52.15;6.92;;;;;;;23.74;45.58;101125.31;1760916;80;20924;-43
2022/08/24 05:37:27;;;;;;;26.33;5.55;;;;;;;23.71;44.79;101130.34;1759962;81;20988;-42
2022/08/24 05:40:06;;;;;;;32.95;5.67;;;;;;;23.64;44.82;101127.23;1703902;83;21424;-42
2022/08/24 05:42:32;;;;;;;27.58;5.05;;;;;;;23.57;45.21;101125.92;1749471;80;22201;-42
2022/08/24 05:44:59;;;;;;;29.42;5.78;;;;;;;23.50;45.25;101121.50;1748378;81;20991;-43
2022/08/24 05:47:26;;;;;;;29.30;5.62;;;;;;;23.46;45.50;101133.20;1759782;80;20956;-42
2022/08/24 05:49:55;;;;;;;31.02;5.55;;;;;;;23.43;45.96;101126.80;1746378;80;21016;-42
2022/08/24 05:52:23;;;;;;;33.53;6.17;;;;;;;23.42;46.11;101127.74;1745076;80;21840;-43
2022/08/24 05:54:54;;;;;;;39.45;6.10;;;;;;;23.39;45.59;101134.54;1741902;81;21031;-43
2022/08/24 05:57:22;;;;;;;33.42;6.05;;;;;;;23.40;46.28;101133.59;1754727;80;21392;-42
2022/08/24 05:59:54;;;;;;;36.25;5.05;;;;;;;23.38;46.69;101123.60;1757451;80;20964;-42
2022/08/24 06:02:22;;;;;;;27.87;4.78;;;;;;;23.37;45.94;101128.02;1760016;80;20957;-42
2022/08/24 06:04:50;;;;;;;20.05;4.37;;;;;;;23.40;45.86;101129.63;1721987;81;21242;-42
2022/08/24 06:07:17;;;;;;;20.82;5.35;;;;;;;23.42;46.61;101133.02;1752519;80;20956;-42
2022/08/24 06:09:46;;;;;;;24.27;4.60;;;;;;;23.46;45.77;101126.59;1750808;81;20988;-42
2022/08/24 06:12:14;;;;;;;23.92;4.95;;;;;;;23.53;45.76;101123.11;1709662;83;20940;-42
2022/08/24 06:14:47;;;;;;;19.23;4.70;;;;;;;23.62;45.23;101120.33;1747687;80;21027;-45
2022/08/24 06:17:14;;;;;;;29.95;5.10;;;;;;;23.66;44.92;101115.25;1757419;80;21852;-43
2022/08/24 06:19:42;;;;;;;31.73;6.55;;;;;;;23.72;44.89;101125.42;1762379;80;20964;-43
2022/08/24 06:22:09;;;;;;;26.73;5.30;;;;;;;23.80;45.20;101124.45;1753536;81;20908;-42
2022/08/24 06:27:22;;;;;;;26.45;4.58;;;;;;;24.08;45.54;101120.05;1761461;81;21174;-42
2022/08/24 06:29:57;;;;;;;21.27;4.40;;;;;;;24.28;45.61;101123.68;1697340;83;21150;-42
2022/08/24 06:32:32;;;;;;;24.80;4.20;;;;;;;24.44;45.21;101126.16;1729085;81;21074;-43
2022/08/24 06:34:59;;;;;;;18.48;3.90;;;;;;;24.62;43.71;101119.59;1745094;81;21019;-43
2022/08/24 06:37:26;;;;;;;24.47;4.35;;;;;;;24.74;43.69;101110.47;1725068;81;21418;-44
2022/08/24 06:42:52;;;;;;;19.55;4.12;;;;;;;25.06;41.74;101116.23;1794721;79;22756;-43
2022/08/24 06:45:23;;;;;;;23.27;4.20;;;;;;;25.14;42.53;101126.30;1772480;80;21018;-43
2022/08/24 06:47:51;;;;;;;26.48;4.25;;;;;;;25.24;42.97;101122.50;1778318;80;21375;-43
2022/08/24 06:50:18;;;;;;;18.23;4.58;;;;;;;25.34;43.33;101118.72;1722185;82;21010;-42
2022/08/24 06:52:45;;;;;;;20.12;3.92;;;;;;;25.46;42.03;101117.87;1730204;81;21496;-43
2022/08/24 06:55:12;;;;;;;22.48;3.60;;;;;;;25.59;40.98;101117.00;1703845;83;20953;-43
2022/08/24 06:57:39;;;;;;;22.52;4.08;;;;;;;25.72;39.97;101113.85;1724719;82;20990;-43
2022/08/24 07:00:09;;;;;;;24.70;4.00;;;;;;;25.83;38.60;101121.02;1728639;81;21329;-43
2022/08/24 07:02:36;;;;;;;19.32;4.08;;;;;;;25.92;38.71;101112.88;1648271;83;21045;-43
2022/08/24 07:05:04;;;;;;;26.57;4.03;;;;;;;26.01;37.97;101114.84;1716268;81;20988;-43
2022/08/24 07:07:44;;;;;;;17.57;3.72;;;;;;;26.10;39.12;101115.97;1622227;83;21059;-44
2022/08/24 07:10:11;;;;;;;29.90;4.78;;;;;;;26.20;40.00;101113.02;1731919;81;21020;-43
2022/08/24 07:12:38;;;;;;;30.08;4.30;;;;;;;26.33;39.81;101103.66;1743745;81;22143;-43
2022/08/24 07:15:06;;;;;;;18.12;3.33;;;;;;;26.48;40.10;101118.07;1737467;81;21007;-44
2022/08/24 07:17:33;;;;;;;18.37;3.72;;;;;;;26.62;40.65;101107.73;1741527;81;20958;-44
2022/08/24 07:20:01;;;;;;;14.15;3.10;;;;;;;26.77;40.27;101115.82;1746288;81;21538;-43
2022/08/24 07:22:35;;;;;;;28.90;4.67;;;;;;;26.91;39.64;101116.61;1728152;81;20915;-44
2022/08/24 07:25:03;;;;;;;21.52;4.28;;;;;;;27.07;37.46;101112.27;1726102;81;22114;-43
2022/08/24 07:27:30;;;;;;;28.35;5.22;;;;;;;27.21;36.84;101112.04;1714356;83;20881;-44
2022/08/24 07:29:57;;;;;;;21.87;4.40;;;;;;;27.32;37.16;101116.97;1724212;83;20958;-43
2022/08/24 07:32:24;;;;;;;16.48;3.60;;;;;;;27.45;35.80;101108.40;1721083;81;21524;-44
2022/08/24 07:34:53;;;;;;;27.90;4.10;;;;;;;27.54;35.36;101105.02;1741464;81;20933;-43
2022/08/24 07:37:21;;;;;;;14.00;3.50;;;;;;;27.65;35.04;101099.30;1720478;83;21229;-43
2022/08/24 07:39:48;;;;;;;22.50;3.65;;;;;;;27.77;35.21;101100.98;1713015;82;21050;-43
2022/08/24 07:42:17;;;;;;;24.12;3.45;;;;;;;27.91;36.78;101105.64;1705686;83;20995;-44
2022/08/24 07:44:44;;;;;;;14.33;3.25;;;;;;;28.04;35.44;101104.14;1759205;80;20998;-43
2022/08/24 07:47:11;;;;;;;17.95;3.10;;;;;;;28.20;35.41;101097.11;1746689;79;21040;-43
2022/08/24 07:49:40;;;;;;;27.40;3.77;;;;;;;28.37;33.88;101092.52;1755490;80;21359;-44
2022/08/24 07:52:09;;;;;;;20.12;3.20;;;;;;;28.55;35.68;101098.59;1751421;80;21611;-44
2022/08/24 07:54:37;;;;;;;20.88;2.60;;;;;;;28.73;34.67;101100.67;1750339;80;21486;-43
2022/08/24 07:57:05;;;;;;;16.60;2.90;;;;;;;28.93;34.93;101104.30;1723340;82;20993;-44
2022/08/24 07:59:34;;;;;;;7.47;2.70;;;;;;;29.17;33.96;101099.14;1732476;80;21356;-43
2022/08/24 08:02:02;;;;;;;12.23;2.62;;;;;;;29.26;32.80;101107.64;1752543;80;21169;-43
2022/08/24 08:04:30;;;;;;;12.35;2.98;;;;;;;29.31;31.63;101109.91;1754463;80;21008;-43
2022/08/24 08:07:00;;;;;;;14.28;2.90;;;;;;;29.28;30.50;101100.86;1751034;80;21019;-43
2022/08/24 08:09:27;;;;;;;22.02;3.75;;;;;;;29.30;33.30;101111.72;1761861;80;21007;-44
2022/08/24 08:11:54;;;;;;;13.32;2.72;;;;;;;29.41;33.07;101113.97;1767389;80;20976;-44
2022/08/24 08:14:21;;;;;;;20.72;3.20;;;;;;;29.63;34.22;101115.08;1753717;80;21212;-43
2022/08/24 08:16:49;;;;;;;19.25;2.50;;;;;;;29.85;29.99;101116.29;1751635;80;20987;-43
2022/08/24 08:19:17;;;;;;;10.38;2.30;;;;;;;29.95;31.92;101109.98;1754041;80;21027;-44
2022/08/24 08:24:35;;;;;;;11.40;2.22;;;;;;;30.05;30.35;101108.69;1759371;80;21544;-43
2022/08/24 08:27:03;;;;;;;13.90;2.75;;;;;;;30.09;29.02;101106.08;1743515;80;21321;-44
2022/08/24 08:29:33;;;;;;;8.78;2.50;;;;;;;30.13;28.98;101105.80;1746990;80;20994;-43
2022/08/24 08:32:01;;;;;;;8.35;2.30;;;;;;;30.16;30.96;101102.84;1755878;80;20952;-43
2022/08/24 08:34:30;;;;;;;11.53;2.35;;;;;;;30.23;28.86;101106.65;1750253;80;21849;-43
2022/08/24 08:36:57;;;;;;;11.10;3.25;;;;;;;30.32;30.37;101100.44;1752015;80;21539;-43
2022/08/24 08:39:24;;;;;;;6.83;2.35;;;;;;;30.44;30.79;101095.78;1746051;80;21107;-44
2022/08/24 08:42:12;;;;;;;5.95;2.33;;;;;;;30.59;31.95;101095.34;1747837;80;21001;-43
2022/08/24 08:44:59;;;;;;;5.35;2.02;;;;;;;30.79;30.19;101094.81;1763125;80;20937;-43
2022/08/24 08:47:45;;;;;;;10.13;2.60;;;;;;;30.94;29.53;101093.84;1752744;80;21024;-44
2022/08/24 08:50:24;;;;;;;20.45;2.60;;;;;;;30.90;28.41;101090.61;1753993;80;21043;-43
2022/08/24 08:53:06;;;;;;;16.90;2.67;;;;;;;30.96;30.19;101087.86;1760683;80;21273;-44
2022/08/24 08:56:11;;;;;;;11.15;2.98;;;;;;;31.12;31.02;101087.22;1752456;80;21000;-43
2022/08/24 08:59:13;;;;;;;10.32;2.65;;;;;;;31.33;30.10;101086.16;1757414;80;20936;-44
2022/08/24 09:02:23;;;;;;;16.73;3.65;;;;;;;31.59;30.04;101075.58;1751444;80;21147;-43
2022/08/24 09:05:26;;;;;;;11.88;2.42;;;;;;;31.77;29.26;101070.74;1766633;80;20940;-43
2022/08/24 09:08:18;;;;;;;12.25;2.92;;;;;;;31.88;29.85;101075.88;1758685;80;21251;-43
2022/08/24 09:11:03;;;;;;;10.50;2.30;;;;;;;31.93;27.46;101068.22;1757866;80;21007;-44
2022/08/24 09:14:00;;;;;;;6.00;2.10;;;;;;;32.02;29.06;101066.94;1746427;80;20938;-43
2022/08/24 09:17:00;;;;;;;16.70;2.95;;;;;;;32.16;29.29;101062.86;1737844;80;21003;-43
2022/08/24 09:19:42;;;;;;;17.20;2.83;;;;;;;32.13;25.20;101069.39;1759535;80;20975;-43
2022/08/24 09:22:15;;;;;;;19.17;2.80;;;;;;;31.95;25.31;101061.36;1752793;80;21155;-43
2022/08/24 09:25:03;;;;;;;17.02;2.40;;;;;;;32.00;27.27;101069.79;1743219;80;20949;-43
2022/08/24 09:28:15;;;;;;;30.62;2.42;;;;;;;32.19;27.04;101056.71;1754589;80;20971;-43
2022/08/24 09:31:03;;;;;;;11.85;1.98;;;;;;;32.33;23.18;101055.33;1762638;80;20993;-44
2022/08/24 09:33:44;;;;;;;17.25;2.47;;;;;;;32.27;24.37;101065.30;1744417;80;20916;-45
2022/08/24 09:36:41;;;;;;;19.92;3.75;;;;;;;32.22;23.82;101056.91;1753119;80;21260;-43
2022/08/24 09:39:37;;;;;;;16.97;3.05;;;;;;;32.24;25.02;101067.78;1757971;80;21003;-43
2022/08/24 09:42:31;;;;;;;15.65;2.62;;;;;;;32.23;22.00;101046.02;1672062;85;21063;-43
2022/08/24 09:45:13;;;;;;;8.15;2.22;;;;;;;32.16;22.21;101038.28;1683983;83;20958;-43
2022/08/24 09:48:00;;;;;;;9.53;2.12;;;;;;;32.18;24.20;101042.12;1753104;80;21059;-43
2022/08/24 09:51:11;;;;;;;15.00;3.30;;;;;;;32.25;23.33;101045.88;1758286;80;21165;-43
2022/08/24 09:54:02;;;;;;;16.40;2.70;;;;;;;32.34;21.77;101040.94;1756245;80;20920;-43
2022/08/24 09:57:17;;;;;;;12.65;2.42;;;;;;;32.47;23.02;101035.67;1755541;80;20991;-43
2022/08/24 10:00:15;;;;;;;11.78;2.60;;;;;;;32.56;23.41;101044.08;1755839;80;20988;-43
2022/08/24 10:03:16;;;;;;;14.43;3.45;;;;;;;32.57;22.35;101033.70;1756990;80;20845;-44
2022/08/24 10:06:20;;;;;;;15.13;3.75;;;;;;;32.65;22.99;101040.44;1753699;80;21245;-43
2022/08/24 10:09:21;;;;;;;20.92;2.33;;;;;;;32.77;20.57;101032.12;1751139;80;21540;-44
2022/08/24 10:12:00;;;;;;;16.35;3.50;;;;;;;32.74;22.26;101031.94;1762880;80;20972;-44
2022/08/24 10:14:47;;;;;;;6.55;1.80;;;;;;;32.88;21.71;101027.84;1774749;80;21546;-44
2022/08/24 10:17:46;;;;;;;12.73;2.10;;;;;;;32.97;21.14;101031.39;1754613;80;20995;-42
2022/08/24 10:20:47;;;;;;;15.78;1.65;;;;;;;33.02;21.85;101029.58;1745171;80;21161;-44
2022/08/24 10:23:39;;;;;;;9.70;1.30;;;;;;;32.99;21.59;101033.92;1773443;80;20983;-43
2022/08/24 10:26:24;;;;;;;15.18;1.87;;;;;;;32.80;21.12;101037.16;1762435;80;20956;-44
2022/08/24 10:29:05;;;;;;;9.43;1.80;;;;;;;32.64;19.54;101033.39;1768389;80;20976;-44
2022/08/24 10:31:48;;;;;;;11.70;1.55;;;;;;;32.57;20.26;101035.53;1763831;80;21473;-43
2022/08/24 10:34:49;;;;;;;11.97;1.25;;;;;;;32.60;19.91;101037.40;1761288;80;21051;-43
2022/08/24 10:41:16;;;;;;;9.83;2.15;;;;;;;32.66;20.99;101037.27;1761592;80;21053;-44
2022/08/24 10:44:04;;;;;;;14.63;1.43;;;;;;;32.83;20.31;101035.50;1745431;82;20929;-43
2022/08/24 10:46:55;;;;;;;4.53;1.20;;;;;;;32.94;20.14;101028.52;1737009;80;21310;-45
2022/08/24 15:13:59;;;;;;;12.18;5.00;;;;;;;33.69;17.94;101016.62;1816282;77;22716;-42
2022/08/24 15:16:40;;;;;;;11.60;3.62;;;;;;;33.50;18.18;101021.33;1817940;76;20985;-42
2022/08/24 15:19:37;;;;;;;17.48;7.92;;;;;;;33.32;17.63;101021.41;1820951;77;21161;-42
2022/08/24 15:22:14;;;;;;;25.12;8.33;;;;;;;33.18;19.19;101024.23;1801386;79;20939;-42
2022/08/24 15:24:52;;;;;;;16.82;8.85;;;;;;;33.18;19.19;101024.23;1764428;80;20978;-42
2022/08/24 15:27:48;;;;;;;7.50;2.75;;;;;;;33.21;19.29;101022.56;1813286;78;21460;-42
2022/08/24 16:08:34;;;;;;;18.30;3.05;;;;;;;29.22;22.05;101040.47;1889338;76;22620;-44
2022/08/24 16:11:09;;;;;;;6.37;2.58;;;;;;;28.93;22.29;101038.56;1795072;78;21002;-42
2022/08/24 16:13:36;;;;;;;13.40;6.78;;;;;;;28.66;22.43;101038.59;1852613;76;21204;-42
2022/08/24 16:16:07;;;;;;;13.08;3.35;;;;;;;28.40;23.07;101038.20;1800578;77;20939;-42
2022/08/24 16:18:59;;;;;;;12.55;3.52;;;;;;;28.15;23.55;101043.38;1859283;76;20992;-41
2022/08/24 16:21:36;;;;;;;7.12;2.10;;;;;;;27.88;23.67;101044.25;1845608;77;20950;-42
2022/08/24 16:24:11;;;;;;;11.38;3.90;;;;;;;27.60;23.50;101042.55;1857351;77;20939;-43
2022/08/24 16:26:52;;;;;;;24.37;3.60;;;;;;;27.40;24.37;101048.96;1857679;77;21155;-41
2022/08/24 16:29:43;;;;;;;15.58;3.60;;;;;;;27.20;24.93;101043.08;1848810;77;21793;-42
2022/08/24 16:32:21;;;;;;;10.03;3.30;;;;;;;26.95;25.43;101045.88;1845430;77;21500;-41
2022/08/24 16:34:55;;;;;;;14.65;3.30;;;;;;;26.72;25.64;101046.81;1846718;77;20975;-42
2022/08/24 16:37:22;;;;;;;8.58;2.80;;;;;;;26.52;25.83;101043.89;1815520;77;20990;-41
2022/08/24 16:39:49;;;;;;;8.75;2.77;;;;;;;26.31;25.30;101037.94;1848686;77;21127;-41
2022/08/24 16:42:23;;;;;;;12.35;2.42;;;;;;;26.24;26.00;101040.70;1846921;77;20988;-41
2022/08/24 16:44:50;;;;;;;17.57;3.65;;;;;;;26.14;25.88;101043.17;1847841;77;21464;-42
2022/08/24 16:47:17;;;;;;;5.80;3.70;;;;;;;26.04;26.00;101042.18;1858933;77;21539;-42
2022/08/24 16:49:44;;;;;;;12.60;3.67;;;;;;;25.94;26.44;101042.84;1859010;77;20974;-42
2022/08/24 16:52:11;;;;;;;10.38;4.60;;;;;;;25.81;26.28;101044.24;1858943;77;21281;-42
2022/08/24 16:54:38;;;;;;;21.37;5.53;;;;;;;25.72;26.71;101040.95;1846905;77;21500;-42
2022/08/24 16:57:15;;;;;;;40.48;15.60;;;;;;;25.61;26.78;101044.39;1813242;77;20892;-42
2022/08/24 16:59:44;;;;;;;33.30;11.70;;;;;;;25.54;26.87;101048.46;1783793;79;21035;-42
2022/08/24 17:02:12;;;;;;;19.77;6.53;;;;;;;25.46;26.86;101056.06;1784000;79;21038;-42
2022/08/24 17:04:39;;;;;;;18.07;5.10;;;;;;;25.39;27.14;101060.98;1789022;79;21344;-42
2022/08/24 17:07:08;;;;;;;16.55;3.47;;;;;;;25.32;28.07;101063.69;1787249;78;20908;-42